AirNav  
 
 736 users online  

KVDF Tampa Executive Airport
Tampa, Florida, USA

GOING TO TAMPA?


FAA INFORMATION EFFECTIVE 07 DECEMBER 2017

Location

FAA Identifier: VDF
Lat/Long: 28-00-50.3000N / 082-20-43.0000W
28-00.838333N / 082-20.716667W
28.0139722 / -82.3452778
(estimated)
Elevation: 21.1 ft. / 6.4 m (surveyed)
Variation: 04W (2000)
From city: 6 miles E of TAMPA, FL
Time zone: UTC -5 (UTC -4 during Daylight Saving Time)
Zip code: 33610

Airport Operations

Airport use: Open to the public
Activation date: 05/1957
Control tower: no
ARTCC: MIAMI CENTER
FSS: SAINT PETERSBURG FLIGHT SERVICE STATION
NOTAMs facility: VDF (NOTAM-D service available)
Attendance: MON-FRI 0700-2200, ALL SAT-SUN 0700-1900
Wind indicator: lighted
Segmented circle: yes
Lights: ACTVT MIRL RYS 05/23 & 18/36, REIL RYS 05, 18 & 36, PAPI RYS 05, 23, 18 & 36 AND MALSR RY 23 - CTAF.
Beacon: white-green (lighted land airport)
Operates sunset to sunrise.

Airport Communications

CTAF/UNICOM: 122.7
WX AWOS-3: 121.125 (813-630-0924)
TAMPA APPROACH: 119.9
TAMPA DEPARTURE: 119.9
WX AWOS-3 at TPF (8 nm SW): 118.925 (813-251-6824)
WX AWOS-3 at PCM (10 nm E): 120.025 (813-764-8259)
WX ASOS at TPA (10 nm W): PHONE 813-873-7228
WX ASOS at ZPH (16 nm NE): 118.975 (813-780-0031)
WX AWOS-3PT at LAL (17 nm E): 118.025 (863-834-2030)
WX ASOS at PIE (19 nm W): PHONE 727-531-3456

Nearby radio navigation aids

VOR radial/distance  VOR name  Freq  Var
LALr274/17.6LAKELAND VORTAC116.0001E
PIEr075/19.1ST PETERSBURG VORTAC116.4005W
SRQr023/38.2SARASOTA VOR/DME117.0005W

 
NDB name  Hdg/Dist  Freq  Var  ID
COSME119/10.436805WTP - .--.

Airport Services

Fuel available: 100LL JET-A
Parking: hangars and tiedowns
Airframe service: MAJOR
Powerplant service: MAJOR
Bottled oxygen: NONE
Bulk oxygen: NONE

Runway Information

Runway 5/23

Dimensions: 5000 x 100 ft. / 1524 x 30 m
Surface: asphalt/concrete, in good condition
Weight bearing capacity: 
PCN 9 /F/A/Y/T
Single wheel: 34.0
Double wheel: 52.0
Runway edge lights: medium intensity
RUNWAY 5  RUNWAY 23
Latitude: 28-00.727325N28-01.336483N
Longitude: 082-20.862127W082-20.235100W
Elevation: 19.2 ft.21.0 ft.
Traffic pattern: leftleft
Runway heading: 046 magnetic, 042 true226 magnetic, 222 true
Displaced threshold: no800 ft.
Declared distances: TORA:5000 TODA:5000 ASDA:4600 LDA:4600TORA:5000 TODA:5000 ASDA:5000 LDA:4200
Markings: precision, in fair conditionprecision, in fair condition
Visual slope indicator: 2-light PAPI on left (3.02 degrees glide path)2-light PAPI on left (3.10 degrees glide path)
Approach lights: MALSR: 1,400 foot medium intensity approach lighting system with runway alignment indicator lights
Runway end identifier lights: yesno
Touchdown point: yes, no lightsyes, no lights
Instrument approach: ILS/DME
Obstructions: 48 ft. trees, 1861 ft. from runway, 75 ft. left of centerline, 35:1 slope to clear17 ft. road, 369 ft. from runway, 9:1 slope to clear
RY 23 APCH SLOPE 50:1 TO DSPLCD THLD.

Runway 18/36

Dimensions: 3259 x 75 ft. / 993 x 23 m
Surface: asphalt, in good condition
Weight bearing capacity: 
PCN 21 /F/B/X/T
Single wheel: 59.0
Double wheel: 84.0
Runway edge lights: medium intensity
RUNWAY 18  RUNWAY 36
Latitude: 28-00.812152N28-00.274385N
Longitude: 082-20.973777W082-20.975733W
Elevation: 18.0 ft.18.5 ft.
Traffic pattern: leftleft
Runway heading: 184 magnetic, 180 true004 magnetic, 000 true
Displaced threshold: 40 ft.no
Declared distances: TORA:3259 TODA:3259 ASDA:3259 LDA:3219
Markings: nonprecision, in good conditionnonprecision, in good condition
Visual slope indicator: 4-light PAPI on right (3.80 degrees glide path)2-light PAPI on left (3.40 degrees glide path)
Runway end identifier lights: yesyes
Touchdown point: yes, no lightsyes, no lights
Obstructions: 50 ft. trees, 1405 ft. from runway, 24:1 slope to clear32 ft. tree, 1085 ft. from runway, 20 ft. right of centerline, 28:1 slope to clear

Airport Ownership and Management from official FAA records

Ownership: Publicly-owned
Owner: HILLSBOROUGH COUNTY AVIATION AUTH
PO BOX 22287
TAMPA, FL 33622
Phone (813) 870-8711
Manager: BRETT W FAY, C.M.
PO BOX 22287
TAMPA, FL 33622
Phone (813) 870-8735

Airport Operational Statistics

Aircraft based on the field: 160
Single engine airplanes: 139
Multi engine airplanes: 14
Jet airplanes: 3
Helicopters: 4
    
Aircraft operations: avg 259/day *
53% local general aviation
47% transient general aviation
<1% air taxi
<1% military
* for 12-month period ending 04 November 2015

Additional Remarks

AFTER HRS FUEL AND SVCS AVBL. JET SINGLE POINT FUELING AND LAV SVS AVBL. CTC FBO ON CALL ATTENDANT AT 813-695-6097.
CTC GENERAL AVIATION DEPT AT 813-870-8770.
NOISE ABATEMENT PROCEDURES IN EFFECT FOR RY 18. NO TURNS UNTIL OVER INTERSTATE. NO TURNS BLO 400 FT AGL.
WHEN DEPARTING RY O5 BE ALERT FOR MALSR LGT FIXTURE LCTD 55 FT BYD RY END & 9 FT ABV RY END ELEV.

Instrument Procedures

NOTE: All procedures below are presented as PDF files. If you need a reader for these files, you should download the free Adobe Reader.

NOT FOR NAVIGATION. Please procure official charts for flight.
FAA instrument procedures published for use between 7 December 2017 at 0901Z and 4 January 2018 at 0900Z.

 
STARs - Standard Terminal Arrivals
BLOND FOUR (RNAV)   download (274KB)
BRDGE EIGHT   download (235KB)
DADES FOUR (RNAV)   2 pages: [1] [2] (313KB)
DEAKK FIVE (RNAV)   download (252KB)
FOOXX FOUR (RNAV)   download (240KB)
LZARD SIX   download (236KB)
 
IAPs - Instrument Approach Procedures
ILS OR LOC RWY 23   download (227KB)
RNAV (GPS) RWY 05   download (234KB)
RNAV (GPS) RWY 18   download (196KB)
RNAV (GPS) RWY 23   download (222KB)
NOTE: Special Alternate Minimums apply   download (22KB)
NOTE: Special Take-Off Minimums/Departure Procedures apply   download (162KB)

Other nearby airports with instrument procedures:

KTPF - Peter O Knight Airport (8 nm SW)
KPCM - Plant City Airport (10 nm E)
KTPA - Tampa International Airport (10 nm W)
KMCF - MacDill Air Force Base (14 nm SW)
KZPH - Zephyrhills Municipal Airport (16 nm NE)
KLAL - Lakeland Linder Regional Airport (17 nm E)
KPIE - St Pete-Clearwater International Airport (19 nm W)
 
Loc | Ops | Rwys | IFR | FBO | Links
Com | Nav | Svcs | Stats | Notes


 
Area around KVDF (Tampa Executive Airport)
 
Road maps at: MapQuest Bing Google
 
Aerial photo
WARNING: Photo may not be current or correct
Aerial photo of KVDF (Tampa Executive Airport)
Photo courtesy of PhotosFromTheAir.com
Photo taken 27-Feb-2012
looking east.

Do you have a better or more recent aerial photo of Tampa Executive Airport that you would like to share? If so, please send us your photo.

 
Sectional chart

 
Airport diagram
CAUTION: Diagram may not be current
Diagram of KVDF (Tampa Executive Airport)
 
Airport distance calculator
Flying to Tampa Executive Airport? Find the distance to fly.

From to KVDF

Sunrise and sunset
Times for 15-Dec-2017
 Local
(UTC-5)
 Zulu
(UTC)
Morning civil twilight06:4811:48
Sunrise07:1412:14
Sunset17:3522:35
Evening civil twilight18:0123:01

Current date and time
Zulu (UTC)  15-Dec-2017 12:59:27
Local (UTC-5)  15-Dec-2017 07:59:27
 
METAR
KVDF 151255Z AUTO 18004KT 10SM BKN060 OVC070 16/14 A3008 RMK AO2
KTPF 
8nm SW 
151255Z AUTO 17005KT 10SM 17/16 A3007 RMK AO2
KPCM 
10nm E 
151235Z AUTO 14004KT 10SM OVC070 16/13 A3009 RMK AO2
KTPA 
10nm W 
151253Z 15005KT 10SM BKN055 OVC070 18/15 A3007 RMK AO2 SLP181 T01830150
KMCF 
13nm SW 
151158Z 15004KT 10SM BKN070 17/15 A3005 RMK AO2A SLP179 $
KZPH 
16nm NE 
151235Z AUTO 16004KT 10SM OVC070 15/14 A3007 RMK AO2 T01470135
KLAL 
18nm E 
151250Z 19003KT 10SM SCT027 BKN070 14/13 A3008
KPIE 
19nm W 
151253Z 19008KT 10SM FEW010 BKN030 OVC050 18/17 A3006 RMK AO2 SLP179 T01830167
TAF
KTPA 
10nm W 
151133Z 1512/1618 18006KT P6SM SCT025 BKN060 FM151700 24008KT P6SM SCT040 SCT250 FM160000 34004KT P6SM FEW025 SCT250 FM161400 06006KT P6SM SCT250
KMCF 
13nm SW 
150900Z 1509/1615 17005KT 9999 BKN100 QNH3000INS BECMG 1514/1515 21007KT 9999 BKN050 QNH2997INS BECMG 1520/1521 26007KT 9999 SCT050 QNH2994INS TX21/1520Z TN16/1510Z
KLAL 
18nm E 
151133Z 1512/1612 19005KT P6SM SCT025 BKN060 FM151700 24008KT P6SM SCT040 SCT250 FM160000 VRB04KT P6SM FEW025 SCT250 FM160600 00000KT 5SM BR SCT250
KPIE 
19nm W 
151133Z 1512/1612 19007KT P6SM SCT025 BKN060 FM151600 24008KT P6SM SCT040 SCT250 FM152000 34007KT P6SM FEW025 SCT250
NOTAMs
Click for the latest NOTAMs
NOTAMs are issued by the DoD/FAA and will open in a separate window not controlled by AirNav.

 

 
 

FBO, Fuel Providers, and Aircraft Ground Support

  
 Business Name 
 
 Contact 
 
 Services / Description 
 
Fuel Prices
 
Comments
  
Skyport Aviation UNICOM 122.70
813-626-1515
[web site]
[email]
Airport management, Aviation fuel, Aircraft ground handling, Oxygen service, Aircraft parking (ramp or tiedown), Hangars, Hangar leasing / sales, ...
More info and photos of Skyport Aviation
 
NATA Safety 1st   U.S. Government AIR Card   CAA Preferred FBO   CJP FuelAdvantage   UVair   World Fuel | Colt Contract Fuel   Alliance Card   FlyBuys™ Rewards Program   Contract Fuel   Courtesy car   Hertz   Wireless Internet Access (WiFi)  
 
Ascent
100LL Jet A
FS $5.16 $5.46 
 Updated 11-Dec-2017
 
   19 read write
Alternatives at nearby airports
IMPORTANT: Note that the FBOs below are NOT at KVDF but at other nearby airports. Do not expect services from these FBOs to be available at KVDF.
Located at KLAL
Sheltair Lakeland
UNICOM 122.95
863-647-3911
[web site]
[email]
At KLAL (Lakeland Linder Regional Airport), 17 miles E

US CUSTOMS NOW AVAILABLE!
More info and photos of Sheltair Lakeland (KLAL)
Located at KLAL
Avfuel
100LL Jet A
FS $5.28 $5.43 
SS $3.78 --- 
 Updated 13-Dec-2017
 
   6 read write
FS=Full service
SS=Self service
Update Fuel Prices
 

Aviation Businesses, Services, and Facilities

  
 Business Name 
 
 Contact 
 
 Services / Description 
 
Distance
 
Comments
  
Global Pilot Academy, Inc. toll-free 1-844-877-4568
813-600-4052
[web site]
[email]
Pilot school (FAR Part 141), Flight training, Aircraft rental, Aerial photography, Aviation accessories, Pilot supplies, Pilots lounge / snooze room, ...
 
Certificated Pilot School   FAA-Approved Repair Station   PSI FAA Test Center   Wireless Internet Access (WiFi)  
 
More info about Global Pilot Academy, Inc.
on airport  
   write
Reliable Aviation 813-626-4884
no information available

If you are affiliated with Reliable Aviation and would like to show here your services, contact info, web link, logo, and more, click here
on airport  
   write
 

Would you like to see your business listed on this page?

 If your business provides an interesting product or service to pilots, flight crews, aircraft, or users of the Tampa Executive Airport, you should consider listing it here.  To start the listing process, click on the button below
 
Add a business
 

Other Pages about Tampa Executive Airport

Update a link
 
Copyright © AirNav, LLC. All rights reserved. Privacy Policy  Contact